This is the latest recevied weather packets stored in our database for station/object N0THY. If no packets are shown the sender has not sent any weather packets the latest 1 day(s).
| Time | Temp. | Humidity | Pressure | Rain* | Wind** | Luminosity | Snow |
|---|---|---|---|---|---|---|---|
| 1778091602 | 12.78° C | 35% | 1017.2 hPa | 1.27 mm | - | - | - |
| 1778090699 | 12.78° C | 37% | 1017 hPa | 1.27 mm | - | - | - |
| 1778089796 | 12.22° C | 39% | 1016.9 hPa | 1.27 mm | - | - | - |
| 1778088893 | 12.22° C | 40% | 1016.7 hPa | 1.27 mm | - | - | - |
| 1778087990 | 11.11° C | 41% | 1016.8 hPa | 1.27 mm | - | - | - |
| 1778087087 | 10.56° C | 46% | 1016.7 hPa | 1.27 mm | - | - | - |
| 1778086184 | 9.44° C | 50% | 1016.6 hPa | 1.27 mm | - | - | - |
| 1778076252 | 3.89° C | 80% | 1015.8 hPa | 1.27 mm | - | - | - |
| 1778075349 | 3.33° C | 88% | 1015.5 hPa | 1.27 mm | - | - | - |
| 1778074446 | 2.22° C | 95% | 1015.2 hPa | 1.27 mm | - | - | - |
| 1778072640 | 1.67° C | 95% | 1014.9 hPa | 1.27 mm | - | - | - |
| 1778059999 | 7.22° C | 70% | 1011.6 hPa | 0.25 mm | - | - | - |
| 1778059096 | 7.22° C | 71% | 1011.7 hPa | 0.25 mm | - | - | - |
| 1778058193 | 6.67° C | 74% | 1011.7 hPa | 0.25 mm | - | - | - |
| 1778057290 | 6.11° C | 74% | 1011.7 hPa | 0.25 mm | - | - | - |
| 1778056387 | 6.67° C | 73% | 1011.6 hPa | 0.25 mm | - | - | - |
| 1778055484 | 6.67° C | 71% | 1011.5 hPa | 0.25 mm | - | - | - |
| 1778054581 | 7.22° C | 71% | 1011.7 hPa | 0.25 mm | - | - | - |
| 1778052775 | 7.22° C | 69% | 1011.9 hPa | 0.25 mm | - | - | - |
| 1778051872 | 7.22° C | 69% | 1012 hPa | 0.25 mm | - | - | - |
| 1778050969 | 7.22° C | 69% | 1011.9 hPa | 0.25 mm | - | - | - |
| 1778050066 | 7.78° C | 66% | 1011.9 hPa | 0.25 mm | - | - | - |
| 1778049163 | 8.33° C | 65% | 1012 hPa | 0.25 mm | - | - | - |
| 1778044649 | 7.78° C | 65% | 1011.5 hPa | 0.25 mm | - | - | - |
| 1778043746 | 8.33° C | 63% | 1011.4 hPa | 0.25 mm | - | - | - |
* Rain since midnight (hover to see other rain measurements)
** Current wind speed in m/s (hover to see current wind gust speed)